sensor_id;sensor_type;location;lat;lon;timestamp;P1;durP1;ratioP1;P2;durP2;ratioP2
26050;SDS011;13825;53.496;10.020;2023-02-28T00:01:53;6.47;;;2.50;;
26050;SDS011;13825;53.496;10.020;2023-02-28T00:04:20;5.37;;;2.50;;
26050;SDS011;13825;53.496;10.020;2023-02-28T00:06:47;5.40;;;3.03;;
26050;SDS011;13825;53.496;10.020;2023-02-28T00:09:15;5.97;;;2.97;;
26050;SDS011;13825;53.496;10.020;2023-02-28T00:11:42;3.23;;;2.27;;
26050;SDS011;13825;53.496;10.020;2023-02-28T00:14:10;4.00;;;2.70;;
26050;SDS011;13825;53.496;10.020;2023-02-28T00:16:38;3.03;;;2.57;;
26050;SDS011;13825;53.496;10.020;2023-02-28T00:19:05;5.13;;;3.10;;
26050;SDS011;13825;53.496;10.020;2023-02-28T00:21:33;4.33;;;3.07;;
26050;SDS011;13825;53.496;10.020;2023-02-28T00:24:00;6.40;;;3.00;;
26050;SDS011;13825;53.496;10.020;2023-02-28T00:26:27;5.07;;;2.93;;
26050;SDS011;13825;53.496;10.020;2023-02-28T00:28:54;4.27;;;3.00;;
26050;SDS011;13825;53.496;10.020;2023-02-28T00:31:23;5.97;;;3.10;;
26050;SDS011;13825;53.496;10.020;2023-02-28T00:33:50;6.27;;;3.03;;
26050;SDS011;13825;53.496;10.020;2023-02-28T00:36:17;4.10;;;2.90;;
26050;SDS011;13825;53.496;10.020;2023-02-28T00:38:45;4.93;;;2.97;;
26050;SDS011;13825;53.496;10.020;2023-02-28T00:41:12;5.93;;;3.40;;
26050;SDS011;13825;53.496;10.020;2023-02-28T00:43:39;6.73;;;3.30;;
26050;SDS011;13825;53.496;10.020;2023-02-28T00:46:06;4.97;;;3.07;;
26050;SDS011;13825;53.496;10.020;2023-02-28T00:48:35;3.87;;;2.93;;
26050;SDS011;13825;53.496;10.020;2023-02-28T00:51:03;6.47;;;3.43;;
26050;SDS011;13825;53.496;10.020;2023-02-28T00:53:30;5.63;;;3.43;;
26050;SDS011;13825;53.496;10.020;2023-02-28T00:55:58;6.17;;;3.30;;
26050;SDS011;13825;53.496;10.020;2023-02-28T00:58:25;4.97;;;3.27;;
26050;SDS011;13825;53.496;10.020;2023-02-28T01:00:53;4.80;;;3.20;;
26050;SDS011;13825;53.496;10.020;2023-02-28T01:03:20;5.57;;;3.40;;
26050;SDS011;13825;53.496;10.020;2023-02-28T01:05:49;6.83;;;3.80;;
26050;SDS011;13825;53.496;10.020;2023-02-28T01:08:18;5.80;;;3.00;;
26050;SDS011;13825;53.496;10.020;2023-02-28T01:10:45;4.53;;;2.97;;
26050;SDS011;13825;53.496;10.020;2023-02-28T01:13:13;7.37;;;3.13;;
26050;SDS011;13825;53.496;10.020;2023-02-28T01:15:41;8.33;;;4.30;;
26050;SDS011;13825;53.496;10.020;2023-02-28T01:18:12;7.13;;;3.83;;
26050;SDS011;13825;53.496;10.020;2023-02-28T01:20:39;4.93;;;3.73;;
26050;SDS011;13825;53.496;10.020;2023-02-28T01:23:08;6.10;;;3.27;;
26050;SDS011;13825;53.496;10.020;2023-02-28T01:25:35;6.03;;;3.40;;
26050;SDS011;13825;53.496;10.020;2023-02-28T01:28:03;5.20;;;3.33;;
26050;SDS011;13825;53.496;10.020;2023-02-28T01:30:31;4.83;;;3.20;;
26050;SDS011;13825;53.496;10.020;2023-02-28T01:32:59;5.10;;;3.30;;
26050;SDS011;13825;53.496;10.020;2023-02-28T01:35:26;11.37;;;3.90;;
26050;SDS011;13825;53.496;10.020;2023-02-28T01:37:53;4.93;;;3.20;;
26050;SDS011;13825;53.496;10.020;2023-02-28T01:40:22;6.50;;;3.90;;
26050;SDS011;13825;53.496;10.020;2023-02-28T01:42:49;5.43;;;3.30;;
26050;SDS011;13825;53.496;10.020;2023-02-28T01:45:18;7.20;;;4.03;;
26050;SDS011;13825;53.496;10.020;2023-02-28T01:47:48;8.40;;;3.90;;
26050;SDS011;13825;53.496;10.020;2023-02-28T01:50:17;5.70;;;3.27;;
26050;SDS011;13825;53.496;10.020;2023-02-28T01:52:47;4.93;;;3.23;;
26050;SDS011;13825;53.496;10.020;2023-02-28T01:55:15;7.07;;;3.80;;
26050;SDS011;13825;53.496;10.020;2023-02-28T01:57:47;6.67;;;3.37;;
26050;SDS011;13825;53.496;10.020;2023-02-28T02:00:18;5.80;;;4.00;;
26050;SDS011;13825;53.496;10.020;2023-02-28T02:02:49;7.07;;;3.53;;
26050;SDS011;13825;53.496;10.020;2023-02-28T02:05:19;7.97;;;4.10;;
26050;SDS011;13825;53.496;10.020;2023-02-28T02:07:48;7.13;;;3.53;;
26050;SDS011;13825;53.496;10.020;2023-02-28T02:10:19;5.87;;;3.73;;
26050;SDS011;13825;53.496;10.020;2023-02-28T02:12:55;7.77;;;4.13;;
26050;SDS011;13825;53.496;10.020;2023-02-28T02:15:35;7.13;;;3.50;;
26050;SDS011;13825;53.496;10.020;2023-02-28T02:18:08;6.93;;;3.70;;
26050;SDS011;13825;53.496;10.020;2023-02-28T02:20:46;4.60;;;3.17;;
26050;SDS011;13825;53.496;10.020;2023-02-28T02:26:50;6.33;;;4.00;;
26050;SDS011;13825;53.496;10.020;2023-02-28T02:29:32;6.13;;;3.57;;
26050;SDS011;13825;53.496;10.020;2023-02-28T02:32:28;5.83;;;3.23;;
26050;SDS011;13825;53.496;10.020;2023-02-28T02:35:23;5.77;;;3.03;;
26050;SDS011;13825;53.496;10.020;2023-02-28T02:37:55;7.37;;;3.47;;
26050;SDS011;13825;53.496;10.020;2023-02-28T02:40:32;4.37;;;3.33;;
26050;SDS011;13825;53.496;10.020;2023-02-28T02:43:07;4.67;;;3.47;;
26050;SDS011;13825;53.496;10.020;2023-02-28T02:45:40;5.37;;;3.20;;
26050;SDS011;13825;53.496;10.020;2023-02-28T02:48:10;6.10;;;3.80;;
26050;SDS011;13825;53.496;10.020;2023-02-28T02:50:42;7.17;;;3.00;;
26050;SDS011;13825;53.496;10.020;2023-02-28T02:53:12;8.73;;;3.80;;
26050;SDS011;13825;53.496;10.020;2023-02-28T02:55:44;5.47;;;4.13;;
26050;SDS011;13825;53.496;10.020;2023-02-28T02:58:18;6.40;;;3.50;;
26050;SDS011;13825;53.496;10.020;2023-02-28T03:00:51;4.83;;;3.40;;
26050;SDS011;13825;53.496;10.020;2023-02-28T03:03:20;4.80;;;3.63;;
26050;SDS011;13825;53.496;10.020;2023-02-28T03:05:55;6.10;;;3.23;;
26050;SDS011;13825;53.496;10.020;2023-02-28T03:08:23;6.20;;;3.73;;
26050;SDS011;13825;53.496;10.020;2023-02-28T03:10:50;5.57;;;3.37;;
26050;SDS011;13825;53.496;10.020;2023-02-28T03:13:37;7.50;;;3.67;;
26050;SDS011;13825;53.496;10.020;2023-02-28T03:16:20;5.70;;;3.30;;
26050;SDS011;13825;53.496;10.020;2023-02-28T03:18:57;7.47;;;3.90;;
26050;SDS011;13825;53.496;10.020;2023-02-28T03:21:33;10.07;;;3.53;;
26050;SDS011;13825;53.496;10.020;2023-02-28T03:24:04;5.40;;;3.40;;
26050;SDS011;13825;53.496;10.020;2023-02-28T03:26:38;7.50;;;4.17;;
26050;SDS011;13825;53.496;10.020;2023-02-28T03:29:09;5.17;;;3.37;;
26050;SDS011;13825;53.496;10.020;2023-02-28T03:31:43;10.43;;;3.53;;
26050;SDS011;13825;53.496;10.020;2023-02-28T03:34:16;6.73;;;3.83;;
26050;SDS011;13825;53.496;10.020;2023-02-28T03:36:49;9.10;;;3.70;;
26050;SDS011;13825;53.496;10.020;2023-02-28T03:39:20;7.00;;;3.73;;
26050;SDS011;13825;53.496;10.020;2023-02-28T03:41:50;6.53;;;3.53;;
26050;SDS011;13825;53.496;10.020;2023-02-28T03:44:21;6.47;;;3.50;;
26050;SDS011;13825;53.496;10.020;2023-02-28T03:46:52;7.23;;;3.50;;
26050;SDS011;13825;53.496;10.020;2023-02-28T03:49:25;5.20;;;3.40;;
26050;SDS011;13825;53.496;10.020;2023-02-28T03:51:58;6.73;;;3.60;;
26050;SDS011;13825;53.496;10.020;2023-02-28T03:54:29;6.57;;;4.03;;
26050;SDS011;13825;53.496;10.020;2023-02-28T03:56:59;8.13;;;3.80;;
26050;SDS011;13825;53.496;10.020;2023-02-28T03:59:30;7.67;;;3.57;;
26050;SDS011;13825;53.496;10.020;2023-02-28T04:02:02;6.60;;;3.83;;
26050;SDS011;13825;53.496;10.020;2023-02-28T04:04:29;8.20;;;3.57;;
26050;SDS011;13825;53.496;10.020;2023-02-28T04:07:02;4.13;;;3.37;;
26050;SDS011;13825;53.496;10.020;2023-02-28T04:09:30;5.93;;;3.63;;
26050;SDS011;13825;53.496;10.020;2023-02-28T04:11:58;5.93;;;3.70;;
26050;SDS011;13825;53.496;10.020;2023-02-28T04:14:25;6.00;;;3.73;;
26050;SDS011;13825;53.496;10.020;2023-02-28T04:16:52;5.57;;;3.63;;
26050;SDS011;13825;53.496;10.020;2023-02-28T04:19:19;4.87;;;3.43;;
26050;SDS011;13825;53.496;10.020;2023-02-28T04:21:47;8.47;;;4.17;;
26050;SDS011;13825;53.496;10.020;2023-02-28T04:24:17;6.60;;;4.00;;
26050;SDS011;13825;53.496;10.020;2023-02-28T04:26:46;8.03;;;3.60;;
26050;SDS011;13825;53.496;10.020;2023-02-28T04:29:18;7.40;;;4.03;;
26050;SDS011;13825;53.496;10.020;2023-02-28T04:31:46;7.73;;;3.87;;
26050;SDS011;13825;53.496;10.020;2023-02-28T04:34:13;8.73;;;4.53;;
26050;SDS011;13825;53.496;10.020;2023-02-28T04:36:40;6.53;;;4.30;;
26050;SDS011;13825;53.496;10.020;2023-02-28T04:39:07;6.43;;;4.33;;
26050;SDS011;13825;53.496;10.020;2023-02-28T04:41:36;7.13;;;4.17;;
26050;SDS011;13825;53.496;10.020;2023-02-28T04:44:04;5.57;;;4.13;;
26050;SDS011;13825;53.496;10.020;2023-02-28T04:46:30;7.53;;;4.20;;
26050;SDS011;13825;53.496;10.020;2023-02-28T04:48:57;8.07;;;4.03;;
26050;SDS011;13825;53.496;10.020;2023-02-28T04:51:24;9.50;;;4.57;;
26050;SDS011;13825;53.496;10.020;2023-02-28T04:53:51;5.67;;;4.03;;
26050;SDS011;13825;53.496;10.020;2023-02-28T04:56:19;4.87;;;3.57;;
26050;SDS011;13825;53.496;10.020;2023-02-28T04:58:47;5.53;;;4.43;;
26050;SDS011;13825;53.496;10.020;2023-02-28T05:01:16;6.97;;;4.60;;
26050;SDS011;13825;53.496;10.020;2023-02-28T05:03:45;6.77;;;4.30;;
26050;SDS011;13825;53.496;10.020;2023-02-28T05:06:13;6.07;;;3.90;;
26050;SDS011;13825;53.496;10.020;2023-02-28T05:08:40;6.23;;;4.30;;
26050;SDS011;13825;53.496;10.020;2023-02-28T05:11:12;8.93;;;4.10;;
26050;SDS011;13825;53.496;10.020;2023-02-28T05:13:41;9.40;;;4.43;;
26050;SDS011;13825;53.496;10.020;2023-02-28T05:16:09;8.80;;;4.37;;
26050;SDS011;13825;53.496;10.020;2023-02-28T05:18:36;6.20;;;4.43;;
26050;SDS011;13825;53.496;10.020;2023-02-28T05:21:03;6.43;;;4.23;;
26050;SDS011;13825;53.496;10.020;2023-02-28T05:23:31;7.10;;;4.50;;
26050;SDS011;13825;53.496;10.020;2023-02-28T05:25:58;9.03;;;4.17;;
26050;SDS011;13825;53.496;10.020;2023-02-28T05:28:25;10.23;;;4.90;;
26050;SDS011;13825;53.496;10.020;2023-02-28T05:30:52;7.43;;;4.50;;
26050;SDS011;13825;53.496;10.020;2023-02-28T05:33:20;7.97;;;4.07;;
26050;SDS011;13825;53.496;10.020;2023-02-28T05:35:47;7.30;;;4.63;;
26050;SDS011;13825;53.496;10.020;2023-02-28T05:38:13;10.47;;;4.63;;
26050;SDS011;13825;53.496;10.020;2023-02-28T05:40:41;8.20;;;4.73;;
26050;SDS011;13825;53.496;10.020;2023-02-28T05:43:09;6.90;;;4.43;;
26050;SDS011;13825;53.496;10.020;2023-02-28T05:45:37;6.43;;;4.67;;
26050;SDS011;13825;53.496;10.020;2023-02-28T05:48:04;6.77;;;4.10;;
26050;SDS011;13825;53.496;10.020;2023-02-28T05:50:33;10.60;;;5.40;;
26050;SDS011;13825;53.496;10.020;2023-02-28T05:53:00;9.67;;;4.87;;
26050;SDS011;13825;53.496;10.020;2023-02-28T05:55:27;9.20;;;5.17;;
26050;SDS011;13825;53.496;10.020;2023-02-28T05:57:53;8.73;;;4.90;;
26050;SDS011;13825;53.496;10.020;2023-02-28T06:00:21;9.60;;;5.20;;
26050;SDS011;13825;53.496;10.020;2023-02-28T06:02:48;9.03;;;5.43;;
26050;SDS011;13825;53.496;10.020;2023-02-28T06:05:17;7.70;;;5.00;;
26050;SDS011;13825;53.496;10.020;2023-02-28T06:07:45;8.73;;;4.87;;
26050;SDS011;13825;53.496;10.020;2023-02-28T06:10:13;9.23;;;5.33;;
26050;SDS011;13825;53.496;10.020;2023-02-28T06:12:40;11.63;;;6.03;;
26050;SDS011;13825;53.496;10.020;2023-02-28T06:15:09;10.63;;;6.23;;
26050;SDS011;13825;53.496;10.020;2023-02-28T06:17:38;9.87;;;4.97;;
26050;SDS011;13825;53.496;10.020;2023-02-28T06:20:05;13.13;;;6.10;;
26050;SDS011;13825;53.496;10.020;2023-02-28T06:22:33;12.33;;;6.17;;
26050;SDS011;13825;53.496;10.020;2023-02-28T06:25:03;12.50;;;6.60;;
26050;SDS011;13825;53.496;10.020;2023-02-28T06:27:30;12.20;;;6.90;;
26050;SDS011;13825;53.496;10.020;2023-02-28T06:29:57;9.93;;;6.90;;
26050;SDS011;13825;53.496;10.020;2023-02-28T06:32:24;13.27;;;6.87;;
26050;SDS011;13825;53.496;10.020;2023-02-28T06:34:54;9.60;;;6.23;;
26050;SDS011;13825;53.496;10.020;2023-02-28T06:37:22;10.63;;;6.57;;
26050;SDS011;13825;53.496;10.020;2023-02-28T06:39:51;11.20;;;7.70;;
26050;SDS011;13825;53.496;10.020;2023-02-28T06:42:19;12.53;;;6.83;;
26050;SDS011;13825;53.496;10.020;2023-02-28T06:44:47;8.33;;;5.70;;
26050;SDS011;13825;53.496;10.020;2023-02-28T06:47:13;9.50;;;5.97;;
26050;SDS011;13825;53.496;10.020;2023-02-28T06:49:40;11.27;;;6.30;;
26050;SDS011;13825;53.496;10.020;2023-02-28T06:52:07;10.23;;;5.90;;
26050;SDS011;13825;53.496;10.020;2023-02-28T06:54:35;13.00;;;5.97;;
26050;SDS011;13825;53.496;10.020;2023-02-28T06:57:03;9.87;;;5.70;;
26050;SDS011;13825;53.496;10.020;2023-02-28T06:59:31;11.03;;;5.83;;
26050;SDS011;13825;53.496;10.020;2023-02-28T07:01:58;10.23;;;5.87;;
26050;SDS011;13825;53.496;10.020;2023-02-28T07:04:25;9.60;;;5.97;;
26050;SDS011;13825;53.496;10.020;2023-02-28T07:06:52;10.43;;;6.17;;
26050;SDS011;13825;53.496;10.020;2023-02-28T07:09:21;11.63;;;6.80;;
26050;SDS011;13825;53.496;10.020;2023-02-28T07:11:48;8.40;;;5.50;;
26050;SDS011;13825;53.496;10.020;2023-02-28T07:14:14;9.70;;;5.97;;
26050;SDS011;13825;53.496;10.020;2023-02-28T07:16:43;9.53;;;5.67;;
26050;SDS011;13825;53.496;10.020;2023-02-28T07:19:10;11.40;;;5.33;;
26050;SDS011;13825;53.496;10.020;2023-02-28T07:21:37;10.17;;;5.07;;
26050;SDS011;13825;53.496;10.020;2023-02-28T07:24:05;8.03;;;4.73;;
26050;SDS011;13825;53.496;10.020;2023-02-28T07:26:32;10.73;;;4.90;;
26050;SDS011;13825;53.496;10.020;2023-02-28T07:29:00;7.80;;;5.00;;
26050;SDS011;13825;53.496;10.020;2023-02-28T07:31:27;11.83;;;4.33;;
26050;SDS011;13825;53.496;10.020;2023-02-28T07:33:55;8.53;;;4.27;;
26050;SDS011;13825;53.496;10.020;2023-02-28T07:36:22;7.53;;;4.23;;
26050;SDS011;13825;53.496;10.020;2023-02-28T07:38:49;9.83;;;4.20;;
26050;SDS011;13825;53.496;10.020;2023-02-28T07:41:16;6.57;;;4.00;;
26050;SDS011;13825;53.496;10.020;2023-02-28T07:43:44;6.73;;;3.90;;
26050;SDS011;13825;53.496;10.020;2023-02-28T07:46:12;6.60;;;4.00;;
26050;SDS011;13825;53.496;10.020;2023-02-28T07:48:41;8.37;;;4.00;;
26050;SDS011;13825;53.496;10.020;2023-02-28T07:51:09;7.60;;;3.87;;
26050;SDS011;13825;53.496;10.020;2023-02-28T07:53:37;6.30;;;3.73;;
26050;SDS011;13825;53.496;10.020;2023-02-28T07:56:04;10.20;;;3.97;;
26050;SDS011;13825;53.496;10.020;2023-02-28T07:58:32;7.80;;;3.93;;
26050;SDS011;13825;53.496;10.020;2023-02-28T08:01:04;8.87;;;3.90;;
26050;SDS011;13825;53.496;10.020;2023-02-28T08:03:32;6.33;;;3.83;;
26050;SDS011;13825;53.496;10.020;2023-02-28T08:06:00;6.07;;;4.23;;
26050;SDS011;13825;53.496;10.020;2023-02-28T08:08:29;8.23;;;4.53;;
26050;SDS011;13825;53.496;10.020;2023-02-28T08:10:57;6.97;;;4.03;;
26050;SDS011;13825;53.496;10.020;2023-02-28T08:13:25;6.83;;;4.27;;
26050;SDS011;13825;53.496;10.020;2023-02-28T08:15:53;5.73;;;4.07;;
26050;SDS011;13825;53.496;10.020;2023-02-28T08:18:20;11.00;;;4.67;;
26050;SDS011;13825;53.496;10.020;2023-02-28T08:20:48;7.60;;;4.33;;
26050;SDS011;13825;53.496;10.020;2023-02-28T08:23:15;5.97;;;3.90;;
26050;SDS011;13825;53.496;10.020;2023-02-28T08:25:44;6.43;;;3.43;;
26050;SDS011;13825;53.496;10.020;2023-02-28T08:28:11;6.63;;;4.20;;
26050;SDS011;13825;53.496;10.020;2023-02-28T08:30:38;6.33;;;4.17;;
26050;SDS011;13825;53.496;10.020;2023-02-28T08:33:06;5.63;;;4.10;;
26050;SDS011;13825;53.496;10.020;2023-02-28T08:35:35;8.03;;;4.00;;
26050;SDS011;13825;53.496;10.020;2023-02-28T08:38:02;7.80;;;4.43;;
26050;SDS011;13825;53.496;10.020;2023-02-28T08:40:29;4.93;;;3.47;;
26050;SDS011;13825;53.496;10.020;2023-02-28T08:42:57;6.97;;;4.40;;
26050;SDS011;13825;53.496;10.020;2023-02-28T08:45:25;6.63;;;4.30;;
26050;SDS011;13825;53.496;10.020;2023-02-28T08:47:53;6.97;;;4.30;;
26050;SDS011;13825;53.496;10.020;2023-02-28T08:50:21;5.00;;;3.57;;
26050;SDS011;13825;53.496;10.020;2023-02-28T08:52:48;5.10;;;3.23;;
26050;SDS011;13825;53.496;10.020;2023-02-28T08:55:16;5.40;;;3.60;;
26050;SDS011;13825;53.496;10.020;2023-02-28T08:57:43;5.90;;;3.13;;
26050;SDS011;13825;53.496;10.020;2023-02-28T09:00:13;5.60;;;3.77;;
26050;SDS011;13825;53.496;10.020;2023-02-28T09:02:43;4.63;;;3.20;;
26050;SDS011;13825;53.496;10.020;2023-02-28T09:05:11;5.10;;;3.10;;
26050;SDS011;13825;53.496;10.020;2023-02-28T09:07:39;10.23;;;3.70;;
26050;SDS011;13825;53.496;10.020;2023-02-28T09:10:08;4.83;;;3.53;;
26050;SDS011;13825;53.496;10.020;2023-02-28T09:12:38;6.30;;;3.27;;
26050;SDS011;13825;53.496;10.020;2023-02-28T09:15:08;4.40;;;3.00;;
26050;SDS011;13825;53.496;10.020;2023-02-28T09:17:40;4.87;;;3.30;;
26050;SDS011;13825;53.496;10.020;2023-02-28T09:20:09;3.83;;;2.67;;
26050;SDS011;13825;53.496;10.020;2023-02-28T09:22:38;6.57;;;2.80;;
26050;SDS011;13825;53.496;10.020;2023-02-28T09:25:06;5.60;;;3.00;;
26050;SDS011;13825;53.496;10.020;2023-02-28T09:27:35;5.50;;;3.40;;
26050;SDS011;13825;53.496;10.020;2023-02-28T09:30:02;3.20;;;2.90;;
26050;SDS011;13825;53.496;10.020;2023-02-28T09:32:31;5.60;;;2.63;;
26050;SDS011;13825;53.496;10.020;2023-02-28T09:38:12;7.63;;;2.80;;
26050;SDS011;13825;53.496;10.020;2023-02-28T09:40:53;3.70;;;2.70;;
26050;SDS011;13825;53.496;10.020;2023-02-28T09:43:22;3.80;;;2.57;;
26050;SDS011;13825;53.496;10.020;2023-02-28T09:45:52;3.80;;;2.53;;
26050;SDS011;13825;53.496;10.020;2023-02-28T09:48:26;7.03;;;2.70;;
26050;SDS011;13825;53.496;10.020;2023-02-28T09:51:02;3.83;;;2.67;;
26050;SDS011;13825;53.496;10.020;2023-02-28T09:53:32;3.17;;;2.07;;
26050;SDS011;13825;53.496;10.020;2023-02-28T09:56:01;4.47;;;2.30;;
26050;SDS011;13825;53.496;10.020;2023-02-28T09:58:34;4.73;;;2.80;;
26050;SDS011;13825;53.496;10.020;2023-02-28T10:01:09;3.97;;;2.20;;
26050;SDS011;13825;53.496;10.020;2023-02-28T10:03:49;5.13;;;2.20;;
26050;SDS011;13825;53.496;10.020;2023-02-28T10:06:26;3.97;;;2.00;;
26050;SDS011;13825;53.496;10.020;2023-02-28T10:08:57;3.43;;;2.40;;
26050;SDS011;13825;53.496;10.020;2023-02-28T10:11:28;3.13;;;1.90;;
26050;SDS011;13825;53.496;10.020;2023-02-28T10:14:00;4.30;;;2.07;;
26050;SDS011;13825;53.496;10.020;2023-02-28T10:16:31;2.07;;;1.60;;
26050;SDS011;13825;53.496;10.020;2023-02-28T10:19:09;1.97;;;1.33;;
26050;SDS011;13825;53.496;10.020;2023-02-28T10:21:42;3.53;;;1.40;;
26050;SDS011;13825;53.496;10.020;2023-02-28T10:24:15;1.50;;;1.23;;
26050;SDS011;13825;53.496;10.020;2023-02-28T10:26:47;2.07;;;1.60;;
26050;SDS011;13825;53.496;10.020;2023-02-28T10:29:16;3.43;;;1.57;;
26050;SDS011;13825;53.496;10.020;2023-02-28T10:31:44;1.40;;;1.27;;
26050;SDS011;13825;53.496;10.020;2023-02-28T10:34:12;1.63;;;1.20;;
26050;SDS011;13825;53.496;10.020;2023-02-28T10:36:44;1.00;;;0.90;;
26050;SDS011;13825;53.496;10.020;2023-02-28T10:39:34;2.97;;;1.30;;
26050;SDS011;13825;53.496;10.020;2023-02-28T10:42:20;1.60;;;1.50;;
26050;SDS011;13825;53.496;10.020;2023-02-28T10:47:38;1.97;;;1.60;;
26050;SDS011;13825;53.496;10.020;2023-02-28T10:50:32;1.90;;;1.53;;
26050;SDS011;13825;53.496;10.020;2023-02-28T10:53:22;1.50;;;1.20;;
26050;SDS011;13825;53.496;10.020;2023-02-28T10:55:57;2.33;;;1.50;;
26050;SDS011;13825;53.496;10.020;2023-02-28T10:58:27;2.03;;;1.47;;
26050;SDS011;13825;53.496;10.020;2023-02-28T11:00:55;4.63;;;1.50;;
26050;SDS011;13825;53.496;10.020;2023-02-28T11:03:25;1.77;;;1.33;;
26050;SDS011;13825;53.496;10.020;2023-02-28T11:06:03;2.60;;;1.30;;
26050;SDS011;13825;53.496;10.020;2023-02-28T11:08:34;1.33;;;1.23;;
26050;SDS011;13825;53.496;10.020;2023-02-28T11:11:14;2.73;;;1.27;;
26050;SDS011;13825;53.496;10.020;2023-02-28T11:13:42;3.17;;;1.50;;
26050;SDS011;13825;53.496;10.020;2023-02-28T11:16:11;2.07;;;1.40;;
26050;SDS011;13825;53.496;10.020;2023-02-28T11:18:40;4.10;;;1.50;;
26050;SDS011;13825;53.496;10.020;2023-02-28T11:21:15;1.73;;;1.30;;
26050;SDS011;13825;53.496;10.020;2023-02-28T11:23:46;1.33;;;1.17;;
26050;SDS011;13825;53.496;10.020;2023-02-28T11:26:36;1.47;;;1.30;;
26050;SDS011;13825;53.496;10.020;2023-02-28T11:29:12;1.93;;;1.27;;
26050;SDS011;13825;53.496;10.020;2023-02-28T11:34:34;1.50;;;1.30;;
26050;SDS011;13825;53.496;10.020;2023-02-28T11:37:02;3.17;;;1.50;;
26050;SDS011;13825;53.496;10.020;2023-02-28T11:39:35;1.23;;;1.13;;
26050;SDS011;13825;53.496;10.020;2023-02-28T11:42:06;2.33;;;1.17;;
26050;SDS011;13825;53.496;10.020;2023-02-28T11:44:43;1.20;;;1.10;;
26050;SDS011;13825;53.496;10.020;2023-02-28T11:47:24;1.63;;;1.20;;
26050;SDS011;13825;53.496;10.020;2023-02-28T11:50:01;3.43;;;1.10;;
26050;SDS011;13825;53.496;10.020;2023-02-28T11:55:33;1.83;;;0.90;;
26050;SDS011;13825;53.496;10.020;2023-02-28T12:01:18;2.80;;;1.20;;
26050;SDS011;13825;53.496;10.020;2023-02-28T12:04:14;1.30;;;0.90;;
26050;SDS011;13825;53.496;10.020;2023-02-28T12:06:55;1.50;;;1.20;;
26050;SDS011;13825;53.496;10.020;2023-02-28T12:09:37;3.17;;;1.00;;
26050;SDS011;13825;53.496;10.020;2023-02-28T12:12:20;0.90;;;0.90;;
26050;SDS011;13825;53.496;10.020;2023-02-28T12:15:02;1.40;;;1.30;;
26050;SDS011;13825;53.496;10.020;2023-02-28T12:18:19;1.20;;;1.10;;
26050;SDS011;13825;53.496;10.020;2023-02-28T12:21:04;2.50;;;1.30;;
26050;SDS011;13825;53.496;10.020;2023-02-28T12:23:56;1.43;;;1.07;;
26050;SDS011;13825;53.496;10.020;2023-02-28T12:26:44;1.80;;;1.20;;
26050;SDS011;13825;53.496;10.020;2023-02-28T12:29:21;1.00;;;0.90;;
26050;SDS011;13825;53.496;10.020;2023-02-28T12:32:13;3.13;;;1.20;;
26050;SDS011;13825;53.496;10.020;2023-02-28T12:35:00;1.50;;;1.30;;
26050;SDS011;13825;53.496;10.020;2023-02-28T12:37:47;1.60;;;1.20;;
26050;SDS011;13825;53.496;10.020;2023-02-28T12:56:08;1.97;;;1.10;;
26050;SDS011;13825;53.496;10.020;2023-02-28T12:58:43;3.37;;;1.40;;
26050;SDS011;13825;53.496;10.020;2023-02-28T13:04:59;3.13;;;1.10;;
26050;SDS011;13825;53.496;10.020;2023-02-28T13:07:51;1.37;;;1.27;;
26050;SDS011;13825;53.496;10.020;2023-02-28T13:10:49;1.63;;;1.20;;
26050;SDS011;13825;53.496;10.020;2023-02-28T13:16:13;1.57;;;1.33;;
26050;SDS011;13825;53.496;10.020;2023-02-28T13:18:44;2.03;;;1.20;;
26050;SDS011;13825;53.496;10.020;2023-02-28T13:21:21;2.53;;;1.20;;
26050;SDS011;13825;53.496;10.020;2023-02-28T13:24:01;2.63;;;1.60;;
26050;SDS011;13825;53.496;10.020;2023-02-28T13:29:40;2.57;;;1.50;;
26050;SDS011;13825;53.496;10.020;2023-02-28T13:32:27;1.70;;;1.20;;
26050;SDS011;13825;53.496;10.020;2023-02-28T13:38:15;1.60;;;1.30;;
26050;SDS011;13825;53.496;10.020;2023-02-28T13:44:00;1.43;;;1.33;;
26050;SDS011;13825;53.496;10.020;2023-02-28T13:46:30;3.33;;;1.50;;
26050;SDS011;13825;53.496;10.020;2023-02-28T13:51:51;1.93;;;1.30;;
26050;SDS011;13825;53.496;10.020;2023-02-28T13:54:23;1.87;;;1.30;;
26050;SDS011;13825;53.496;10.020;2023-02-28T13:57:12;2.40;;;1.60;;
26050;SDS011;13825;53.496;10.020;2023-02-28T13:59:50;2.40;;;1.30;;
26050;SDS011;13825;53.496;10.020;2023-02-28T14:05:39;3.07;;;1.57;;
26050;SDS011;13825;53.496;10.020;2023-02-28T14:08:08;2.37;;;1.30;;
26050;SDS011;13825;53.496;10.020;2023-02-28T14:10:42;1.50;;;1.40;;
26050;SDS011;13825;53.496;10.020;2023-02-28T14:13:13;1.57;;;1.43;;
26050;SDS011;13825;53.496;10.020;2023-02-28T14:15:56;1.57;;;1.40;;
26050;SDS011;13825;53.496;10.020;2023-02-28T14:18:25;1.50;;;1.37;;
26050;SDS011;13825;53.496;10.020;2023-02-28T14:20:57;2.63;;;1.30;;
26050;SDS011;13825;53.496;10.020;2023-02-28T14:23:36;4.50;;;1.43;;
26050;SDS011;13825;53.496;10.020;2023-02-28T14:26:16;4.20;;;1.60;;
26050;SDS011;13825;53.496;10.020;2023-02-28T14:28:56;2.03;;;1.50;;
26050;SDS011;13825;53.496;10.020;2023-02-28T14:31:38;3.80;;;1.27;;
26050;SDS011;13825;53.496;10.020;2023-02-28T14:34:23;1.80;;;1.30;;
26050;SDS011;13825;53.496;10.020;2023-02-28T14:37:02;2.23;;;1.43;;
26050;SDS011;13825;53.496;10.020;2023-02-28T15:07:08;1.77;;;1.67;;
26050;SDS011;13825;53.496;10.020;2023-02-28T15:09:36;3.77;;;1.90;;
26050;SDS011;13825;53.496;10.020;2023-02-28T15:12:11;1.93;;;1.73;;
26050;SDS011;13825;53.496;10.020;2023-02-28T15:14:42;2.80;;;1.93;;
26050;SDS011;13825;53.496;10.020;2023-02-28T15:17:14;2.53;;;1.33;;
26050;SDS011;13825;53.496;10.020;2023-02-28T15:19:50;2.73;;;1.60;;
26050;SDS011;13825;53.496;10.020;2023-02-28T15:22:23;1.70;;;1.40;;
26050;SDS011;13825;53.496;10.020;2023-02-28T15:25:57;1.70;;;1.60;;
26050;SDS011;13825;53.496;10.020;2023-02-28T15:28:59;1.47;;;1.37;;
26050;SDS011;13825;53.496;10.020;2023-02-28T16:19:43;3.00;;;1.73;;
26050;SDS011;13825;53.496;10.020;2023-02-28T16:22:10;2.90;;;1.40;;
26050;SDS011;13825;53.496;10.020;2023-02-28T16:24:37;1.83;;;1.33;;
26050;SDS011;13825;53.496;10.020;2023-02-28T16:27:05;2.43;;;1.67;;
26050;SDS011;13825;53.496;10.020;2023-02-28T16:29:34;2.27;;;1.60;;
26050;SDS011;13825;53.496;10.020;2023-02-28T16:32:04;3.33;;;1.63;;
26050;SDS011;13825;53.496;10.020;2023-02-28T16:34:31;1.83;;;1.53;;
26050;SDS011;13825;53.496;10.020;2023-02-28T16:37:00;2.77;;;1.60;;
26050;SDS011;13825;53.496;10.020;2023-02-28T16:39:27;3.17;;;1.70;;
26050;SDS011;13825;53.496;10.020;2023-02-28T16:41:54;2.27;;;1.77;;
26050;SDS011;13825;53.496;10.020;2023-02-28T16:44:24;3.17;;;1.53;;
26050;SDS011;13825;53.496;10.020;2023-02-28T16:46:54;1.57;;;1.47;;
26050;SDS011;13825;53.496;10.020;2023-02-28T16:49:22;1.83;;;1.43;;
26050;SDS011;13825;53.496;10.020;2023-02-28T16:51:48;1.90;;;1.50;;
26050;SDS011;13825;53.496;10.020;2023-02-28T16:54:17;1.77;;;1.47;;
26050;SDS011;13825;53.496;10.020;2023-02-28T16:56:45;2.10;;;1.43;;
26050;SDS011;13825;53.496;10.020;2023-02-28T16:59:17;2.07;;;1.70;;
26050;SDS011;13825;53.496;10.020;2023-02-28T17:01:46;3.13;;;1.53;;
26050;SDS011;13825;53.496;10.020;2023-02-28T17:04:13;2.17;;;1.70;;
26050;SDS011;13825;53.496;10.020;2023-02-28T17:06:40;4.50;;;2.10;;
26050;SDS011;13825;53.496;10.020;2023-02-28T17:09:08;2.40;;;1.70;;
26050;SDS011;13825;53.496;10.020;2023-02-28T17:11:41;3.00;;;2.20;;